Time;durP1;ratioP1;P1;durP2;ratioP2;P2;SDS_P1;SDS_P2;PMS_P1;PMS_P2;Temp;Humidity;BMP_temperature;BMP_pressure;BME280_temperature;BME280_humidity;BME280_pressure;Samples;Min_cycle;Max_cycle;Signal;HPM_P1;HPM_P2
2022/05/04 00:01:53;;;;;;;;;18.00;16.00;;;;;17.26;47.75;101405.22;5083889;28;45761;-71
2022/05/04 00:04:19;;;;;;;;;25.50;21.00;;;;;17.33;47.64;101424.53;5088410;28;45391;-70
2022/05/04 00:06:45;;;;;;;;;20.50;16.50;;;;;17.25;47.88;101421.09;5080098;28;45896;-70
2022/05/04 00:09:10;;;;;;;;;21.25;19.75;;;;;17.32;47.63;101433.34;5080370;28;45475;-70
2022/05/04 00:11:36;;;;;;;;;21.25;17.25;;;;;17.32;47.62;101430.72;5081014;28;45401;-70
2022/05/04 00:14:01;;;;;;;;;21.00;17.00;;;;;17.10;47.66;101390.44;5080333;28;45364;-70
2022/05/04 00:16:27;;;;;;;;;24.75;16.50;;;;;17.31;47.83;101427.19;5079995;28;45415;-71
2022/05/04 00:18:53;;;;;;;;;23.00;19.50;;;;;17.16;47.87;101398.31;5079622;28;45788;-72
2022/05/04 00:21:18;;;;;;;;;21.33;19.33;;;;;17.20;47.61;101402.63;5080003;28;45419;-73
2022/05/04 00:23:44;;;;;;;;;25.00;21.25;;;;;17.20;47.68;101407.94;5079911;28;45481;-72
2022/05/04 00:26:09;;;;;;;;;21.25;18.25;;;;;17.28;47.74;101424.59;5079750;28;45469;-72
2022/05/04 00:28:35;;;;;;;;;20.75;19.75;;;;;17.23;47.86;101413.22;5080146;28;45326;-73
2022/05/04 00:31:00;;;;;;;;;24.00;22.25;;;;;17.24;48.08;101416.72;5044652;28;45445;-71
2022/05/04 00:33:26;;;;;;;;;19.50;17.25;;;;;17.25;47.88;101413.16;5080147;28;45225;-69
2022/05/04 00:35:51;;;;;;;;;23.00;18.50;;;;;17.30;47.67;101419.28;5079728;28;45403;-71
2022/05/04 00:38:17;;;;;;;;;25.00;21.00;;;;;17.21;47.79;101407.06;5080052;28;45508;-70
2022/05/04 00:40:42;;;;;;;;;34.50;29.50;;;;;17.07;48.62;101414.31;5079917;28;45232;-71
2022/05/04 00:43:24;;;;;;;;;26.50;19.75;;;;;16.95;48.71;101403.00;5080285;28;45402;-70
2022/05/04 00:45:50;;;;;;;;;25.50;20.75;;;;;16.99;48.66;101402.94;5061402;28;46167;-71
2022/05/04 00:48:16;;;;;;;;;20.75;17.00;;;;;16.72;48.57;101358.31;5079483;27;45354;-71
2022/05/04 00:50:44;;;;;;;;;23.00;18.50;;;;;16.92;48.23;101384.53;5078322;27;45500;-71
2022/05/04 00:53:10;;;;;;;;;20.00;17.50;;;;;17.01;48.38;101404.69;5059524;28;45513;-71
2022/05/04 00:55:36;;;;;;;;;24.25;20.25;;;;;16.99;48.14;101395.00;5058933;28;45469;-71
2022/05/04 01:00:48;;;;;;;;;23.25;20.00;;;;;17.04;48.24;101396.72;5061883;28;45386;-72
2022/05/04 01:03:14;;;;;;;;;16.50;16.00;;;;;16.98;48.13;101391.50;5066763;28;45793;-72
2022/05/04 01:05:40;;;;;;;;;21.75;18.50;;;;;17.14;48.26;101423.94;5058720;28;45543;-71
2022/05/04 01:08:06;;;;;;;;;22.00;16.00;;;;;17.01;48.20;101395.88;5057840;28;45323;-72
2022/05/04 01:10:31;;;;;;;;;23.75;18.00;;;;;17.15;47.90;101421.22;5058873;28;45496;-72
2022/05/04 01:12:57;;;;;;;;;21.75;17.50;;;;;17.16;48.19;101411.56;5059037;28;45361;-71
2022/05/04 01:15:23;;;;;;;;;24.00;17.50;;;;;17.09;48.02;101405.47;5040519;28;46895;-73
2022/05/04 01:17:49;;;;;;;;;19.00;15.50;;;;;17.02;48.08;101393.22;5058647;28;45487;-70
2022/05/04 01:20:19;;;;;;;;;25.00;22.75;;;;;16.98;48.10;101388.84;5024123;28;45420;-72
2022/05/04 01:22:45;;;;;;;;;20.50;18.50;;;;;17.10;47.91;101407.19;5058722;28;45597;-72
2022/05/04 01:25:13;;;;;;;;;23.00;18.25;;;;;17.10;48.20;101414.28;5058815;28;46196;-72
2022/05/04 01:27:39;;;;;;;;;24.50;22.50;;;;;17.04;48.02;101411.72;5049407;28;45445;-72
2022/05/04 01:30:05;;;;;;;;;28.75;18.25;;;;;17.01;47.97;101411.75;5078679;28;45378;-71
2022/05/04 01:32:31;;;;;;;;;22.25;21.00;;;;;17.05;47.83;101424.91;5079025;27;45394;-72
2022/05/04 01:34:58;;;;;;;;;21.00;19.50;;;;;17.07;48.52;101420.47;5060578;28;47742;-71
2022/05/04 01:37:23;;;;;;;;;24.25;21.75;;;;;16.99;48.20;101417.09;5060682;28;45425;-70
2022/05/04 01:39:49;;;;;;;;;25.00;21.75;;;;;16.85;48.20;101396.09;5078590;27;45335;-72
2022/05/04 01:42:16;;;;;;;;;19.75;18.00;;;;;16.84;48.74;101410.19;5060663;28;45548;-72
2022/05/04 01:44:43;;;;;;;;;27.75;22.50;;;;;16.89;48.11;101411.00;5078695;28;45366;-71
2022/05/04 01:47:09;;;;;;;;;23.25;21.25;;;;;16.93;48.49;101418.03;5078791;28;45468;-71
2022/05/04 01:49:36;;;;;;;;;24.75;18.25;;;;;16.92;48.25;101418.94;5078657;28;45380;-70
2022/05/04 01:52:01;;;;;;;;;25.75;20.50;;;;;16.91;48.36;101417.16;5078566;28;45476;-71
2022/05/04 01:54:27;;;;;;;;;25.75;19.75;;;;;16.91;48.41;101421.59;5078255;27;45436;-72
2022/05/04 01:57:03;;;;;;;;;22.75;19.50;;;;;16.91;48.62;101422.47;5078322;27;45326;-71
2022/05/04 01:59:28;;;;;;;;;27.50;21.75;;;;;16.83;48.44;101403.19;5076416;27;45444;-71
2022/05/04 02:01:54;;;;;;;;;23.25;20.25;;;;;16.88;48.38;101417.22;5063533;28;45530;-69
2022/05/04 02:04:24;;;;;;;;;23.75;23.25;;;;;16.87;48.15;101426.06;5078079;28;45394;-72
2022/05/04 02:06:52;;;;;;;;;19.25;18.00;;;;;16.88;48.42;101422.50;5078271;27;45378;-71
2022/05/04 02:09:18;;;;;;;;;26.00;25.25;;;;;16.66;48.52;101390.13;5078207;28;45457;-72
2022/05/04 02:11:44;;;;;;;;;23.25;19.50;;;;;16.82;48.19;101414.63;5078765;27;45460;-72
2022/05/04 02:14:10;;;;;;;;;23.25;18.25;;;;;16.86;48.11;101413.72;5078214;28;46058;-73
2022/05/04 02:16:35;;;;;;;;;24.25;18.25;;;;;16.84;48.08;101410.19;5078213;28;45514;-72
2022/05/04 02:19:03;;;;;;;;;27.50;20.75;;;;;16.65;48.55;101387.50;5078218;28;45315;-71
2022/05/04 02:21:29;;;;;;;;;22.25;20.50;;;;;16.79;48.64;101408.53;5078245;28;45375;-71
2022/05/04 02:23:58;;;;;;;;;21.75;20.25;;;;;16.65;48.50;101383.09;5077996;28;46084;-72
2022/05/04 02:26:24;;;;;;;;;26.25;21.25;;;;;16.78;48.43;101398.81;5078067;28;45553;-69
2022/05/04 02:28:50;;;;;;;;;26.25;22.00;;;;;16.28;48.35;101321.88;5078118;28;45472;-70
2022/05/04 02:31:16;;;;;;;;;28.75;22.00;;;;;16.54;48.45;101363.84;5078060;27;45461;-71
2022/05/04 02:33:43;;;;;;;;;22.50;21.50;;;;;16.65;48.55;101366.34;5077460;28;45499;-74
2022/05/04 02:38:54;;;;;;;;;32.25;25.00;;;;;16.72;48.65;101389.16;5084851;27;45231;-73
2022/05/04 02:41:19;;;;;;;;;22.25;20.50;;;;;16.65;48.77;101391.00;5082362;28;45350;-74
2022/05/04 02:43:45;;;;;;;;;28.00;21.50;;;;;16.74;48.63;101403.25;5080553;27;45328;-76
2022/05/04 02:46:19;;;;;;;;;27.75;22.25;;;;;16.74;48.90;101403.25;5080216;27;45411;-73
2022/05/04 02:48:46;;;;;;;;;21.75;20.75;;;;;16.74;48.75;101405.91;5080565;28;45439;-73
2022/05/04 02:51:13;;;;;;;;;27.00;21.75;;;;;16.74;48.94;101403.25;5079687;27;45534;-74
2022/05/04 02:53:38;;;;;;;;;18.75;15.75;;;;;16.75;48.83;101405.00;5078328;27;45584;-72
2022/05/04 02:56:10;;;;;;;;;26.75;23.75;;;;;16.68;48.93;101396.28;5077527;28;45468;-74
2022/05/04 02:58:37;;;;;;;;;20.75;19.50;;;;;16.43;48.67;101336.66;5075278;27;45867;-73
2022/05/04 03:04:09;;;;;;;;;25.25;19.00;;;;;16.51;49.13;101358.59;5059902;28;45320;-71
2022/05/04 03:06:36;;;;;;;;;26.00;19.00;;;;;16.72;48.77;101381.25;5077243;27;45651;-71
2022/05/04 03:09:03;;;;;;;;;21.25;21.00;;;;;16.71;48.63;101387.44;5077921;28;45284;-72
2022/05/04 03:14:13;;;;;;;;;23.75;18.50;;;;;16.68;48.78;101392.75;5073230;28;45919;-72
2022/05/04 03:16:42;;;;;;;;;29.00;23.50;;;;;16.69;48.89;101389.22;5065803;28;45629;-74
2022/05/04 03:19:16;;;;;;;;;25.50;19.25;;;;;16.59;48.81;101375.25;5077612;28;45365;-75
2022/05/04 03:21:45;;;;;;;;;30.75;23.00;;;;;16.59;48.79;101383.19;5059216;28;45513;-73
2022/05/04 03:24:11;;;;;;;;;26.00;24.75;;;;;16.62;48.73;101388.41;5073320;28;45416;-73
2022/05/04 03:26:36;;;;;;;;;21.50;21.50;;;;;16.59;48.90;101379.66;5076676;27;45252;-72
2022/05/04 03:29:10;;;;;;;;;25.25;22.25;;;;;16.57;49.01;101371.75;5076781;28;45366;-74
2022/05/04 03:31:37;;;;;;;;;29.00;26.50;;;;;16.57;48.78;101379.69;5077720;28;45476;-70
2022/05/04 03:34:04;;;;;;;;;31.00;23.00;;;;;16.56;48.85;101383.19;5077455;27;45391;-71
2022/05/04 03:36:30;;;;;;;;;22.75;17.25;;;;;16.51;48.75;101378.00;5076707;28;45918;-72
2022/05/04 03:38:56;;;;;;;;;24.00;18.50;;;;;16.38;48.99;101360.50;5076828;28;45394;-73
2022/05/04 03:41:22;;;;;;;;;25.00;22.50;;;;;16.52;48.86;101387.66;5076984;27;45492;-71
2022/05/04 03:43:48;;;;;;;;;27.75;24.50;;;;;16.35;48.70;101351.72;5077116;28;46295;-71
2022/05/04 03:46:21;;;;;;;;;25.00;21.75;;;;;16.39;48.63;101364.03;5076825;27;45464;-72
2022/05/04 03:48:49;;;;;;;;;33.75;24.75;;;;;16.49;48.85;101374.50;5077060;27;45402;-73
2022/05/04 03:51:18;;;;;;;;;29.25;23.75;;;;;16.46;48.98;101368.34;5076857;28;45500;-69
2022/05/04 03:53:45;;;;;;;;;25.75;21.75;;;;;16.20;48.87;101331.66;5076710;27;45304;-70
2022/05/04 03:56:11;;;;;;;;;30.25;22.75;;;;;16.35;48.83;101357.91;5077498;27;45626;-71
2022/05/04 03:58:40;;;;;;;;;31.75;26.75;;;;;16.40;49.04;101373.72;5067580;28;45441;-73
2022/05/04 04:01:06;;;;;;;;;26.00;22.50;;;;;16.14;49.17;101329.09;5078290;27;45397;-73
2022/05/04 04:03:32;;;;;;;;;27.00;26.00;;;;;16.37;49.05;101379.03;5075348;28;45866;-73
2022/05/04 04:05:59;;;;;;;;;28.75;24.50;;;;;16.38;49.11;101370.22;5059750;28;45250;-71
2022/05/04 04:08:30;;;;;;;;;29.50;22.25;;;;;16.21;48.89;101350.16;5057665;28;45338;-73
2022/05/04 04:10:57;;;;;;;;;30.50;26.75;;;;;16.30;48.71;101368.53;5057532;28;45437;-73
2022/05/04 04:13:26;;;;;;;;;28.50;25.25;;;;;16.36;48.76;101372.00;5075203;28;46393;-73
2022/05/04 04:15:52;;;;;;;;;27.00;25.75;;;;;16.35;48.76;101373.78;5079668;28;45839;-70
2022/05/04 04:18:22;;;;;;;;;29.75;25.75;;;;;16.21;49.02;101358.06;5080128;28;45500;-73
2022/05/04 04:23:34;;;;;;;;;22.00;20.75;;;;;16.24;48.88;101368.59;5079089;28;45412;-71
2022/05/04 04:26:01;;;;;;;;;24.50;24.00;;;;;16.25;49.45;101373.00;5061425;28;45277;-69
2022/05/04 04:28:28;;;;;;;;;27.25;21.50;;;;;16.10;48.80;101360.81;5075095;27;45600;-72
2022/05/04 04:30:54;;;;;;;;;26.00;20.00;;;;;16.19;48.51;101370.44;5074264;27;45504;-73
2022/05/04 04:33:41;;;;;;;;;22.75;22.25;;;;;16.09;48.87;101361.72;5053472;28;46825;-73
2022/05/04 06:53:20;;;;;;;;;29.25;27.25;;;;;14.11;53.94;101444.63;5070629;27;45365;-70
2022/05/04 06:55:46;;;;;;;;;30.00;23.75;;;;;14.17;53.35;101434.09;5053614;28;45334;-70
2022/05/04 06:58:11;;;;;;;;;27.75;23.25;;;;;14.53;53.27;101444.56;5053433;28;45504;-71
2022/05/04 07:00:37;;;;;;;;;30.00;23.50;;;;;14.73;52.58;101453.28;5048262;28;45322;-69
2022/05/04 07:03:02;;;;;;;;;21.25;19.50;;;;;14.91;52.52;101444.44;5033245;28;45466;-71
2022/05/04 07:05:28;;;;;;;;;25.75;23.75;;;;;15.04;52.30;101435.59;5033634;28;45379;-72
2022/05/04 07:07:54;;;;;;;;;23.25;19.50;;;;;15.35;51.98;101458.28;5033403;28;45561;-71
2022/05/04 07:10:20;;;;;;;;;28.00;23.50;;;;;15.45;50.94;101458.22;5033341;28;45296;-71
2022/05/04 07:12:45;;;;;;;;;26.75;22.25;;;;;15.55;51.00;101456.38;5032561;28;45448;-73
2022/05/04 07:15:11;;;;;;;;;27.25;23.00;;;;;15.61;50.90;101445.78;5032816;28;45352;-73
2022/05/04 07:17:37;;;;;;;;;29.25;21.50;;;;;15.85;50.59;101465.88;5032931;28;45243;-71
2022/05/04 07:20:03;;;;;;;;;27.50;24.75;;;;;15.78;50.15;101436.84;5032815;28;45388;-69
2022/05/04 07:22:29;;;;;;;;;31.00;26.50;;;;;16.02;50.24;101468.38;5032929;28;45448;-70
2022/05/04 07:24:54;;;;;;;;;31.25;24.25;;;;;16.13;49.84;101467.38;5032433;28;45478;-71
2022/05/04 07:27:20;;;;;;;;;32.00;27.75;;;;;16.04;49.99;101452.47;5032461;28;45386;-72
2022/05/04 07:29:51;;;;;;;;;33.50;28.00;;;;;16.10;49.54;101453.31;5032821;28;45419;-71
2022/05/04 07:32:16;;;;;;;;;34.50;31.50;;;;;16.24;49.70;101473.47;5032505;28;45557;-70
2022/05/04 07:34:42;;;;;;;;;31.00;28.50;;;;;16.31;49.60;101478.66;5032694;28;45306;-71
2022/05/04 07:37:08;;;;;;;;;34.25;30.25;;;;;16.38;48.92;101465.41;5032765;28;45656;-72
2022/05/04 07:42:24;;;;;;;;;28.00;24.00;;;;;16.69;49.33;101461.50;5032457;28;45413;-72
2022/05/04 07:44:59;;;;;;;;;34.25;31.25;;;;;16.91;48.88;101479.78;5032448;28;45493;-72
2022/05/04 07:47:29;;;;;;;;;35.25;29.75;;;;;17.09;48.49;101486.63;5032473;28;45402;-72
2022/05/04 07:49:55;;;;;;;;;33.00;26.25;;;;;17.22;48.12;101487.34;5032547;28;45569;-70
2022/05/04 07:52:21;;;;;;;;;31.25;28.25;;;;;17.18;47.91;101468.00;5044226;28;45984;-71
2022/05/04 07:54:47;;;;;;;;;40.00;30.75;;;;;17.31;47.91;101481.94;5052480;28;45443;-70
2022/05/04 07:57:13;;;;;;;;;29.00;24.50;;;;;17.28;48.85;101466.09;5052692;28;45418;-72
2022/05/04 07:59:38;;;;;;;;;25.50;22.50;;;;;17.41;48.13;101480.88;5052975;28;45593;-70
2022/05/04 08:04:50;;;;;;;;;37.75;31.00;;;;;17.48;47.57;101479.91;5038563;28;45995;-71
2022/05/04 08:07:19;;;;;;;;;36.50;30.75;;;;;17.41;47.38;101465.00;5040164;28;45403;-70
2022/05/04 08:09:45;;;;;;;;;34.50;28.00;;;;;17.49;47.07;101473.72;5042680;28;45474;-69
2022/05/04 08:12:12;;;;;;;;;36.00;30.50;;;;;17.54;46.87;101463.06;5039831;28;45447;-69
2022/05/04 08:14:40;;;;;;;;;35.00;31.25;;;;;17.57;46.72;101455.94;5038027;28;45264;-70
2022/05/04 08:17:07;;;;;;;;;31.50;28.50;;;;;17.62;47.00;101469.09;5039238;28;45730;-69
2022/05/04 08:19:33;;;;;;;;;36.50;32.25;;;;;17.72;46.87;101473.34;5039135;28;45375;-69
2022/05/04 08:21:58;;;;;;;;;36.75;28.50;;;;;17.77;46.66;101482.13;5041472;28;45434;-70
2022/05/04 08:24:24;;;;;;;;;35.00;26.50;;;;;17.87;46.61;101479.31;5058079;28;45453;-69
2022/05/04 08:26:50;;;;;;;;;32.50;28.00;;;;;17.93;46.31;101479.25;5040334;28;45557;-70
2022/05/04 08:29:16;;;;;;;;;29.00;27.75;;;;;17.99;46.33;101476.50;5058931;28;45879;-70
2022/05/04 08:31:42;;;;;;;;;37.00;33.50;;;;;18.01;46.17;101469.41;5058427;28;46112;-69
2022/05/04 08:34:11;;;;;;;;;33.00;29.25;;;;;18.15;45.70;101485.03;5058696;28;45489;-71
2022/05/04 08:36:40;;;;;;;;;41.75;30.75;;;;;18.12;45.78;101475.38;5059086;28;45416;-69
2022/05/04 08:39:07;;;;;;;;;26.00;21.00;;;;;18.20;45.89;101470.81;5059321;28;45471;-68
2022/05/04 08:41:38;;;;;;;;;39.25;30.75;;;;;18.26;45.70;101472.47;5058182;28;46255;-70
2022/05/04 08:44:06;;;;;;;;;32.25;28.75;;;;;18.39;45.87;101467.84;5058565;28;45304;-69
2022/05/04 08:46:34;;;;;;;;;37.25;33.00;;;;;18.41;45.65;101481.91;5058732;28;45489;-69
2022/05/04 08:49:02;;;;;;;;;36.50;30.25;;;;;18.42;45.37;101465.13;5058462;28;45569;-69
2022/05/04 08:51:30;;;;;;;;;29.00;26.75;;;;;18.56;45.38;101468.38;5057897;28;46203;-71
2022/05/04 08:53:56;;;;;;;;;41.00;33.75;;;;;18.52;45.17;101455.19;5039754;28;45435;-70
2022/05/04 08:56:22;;;;;;;;;31.00;30.00;;;;;18.63;45.02;101477.97;5058101;28;45485;-69
2022/05/04 08:58:48;;;;;;;;;35.25;32.50;;;;;18.58;44.88;101463.03;5058508;28;45272;-71
2022/05/04 09:01:13;;;;;;;;;32.25;27.25;;;;;18.75;44.58;101468.03;5058618;28;45977;-71
2022/05/04 09:03:39;;;;;;;;;45.75;34.75;;;;;18.90;44.35;101475.69;5060710;28;45432;-70
2022/05/04 09:06:05;;;;;;;;;35.25;31.75;;;;;18.89;44.30;101462.44;5061966;28;45481;-70
2022/05/04 09:08:30;;;;;;;;;34.00;30.00;;;;;18.95;44.37;101483.56;5060768;28;45470;-70
2022/05/04 09:10:56;;;;;;;;;42.50;34.00;;;;;18.92;44.15;101480.97;5063003;28;46118;-69
2022/05/04 09:13:21;;;;;;;;;45.25;33.50;;;;;18.80;44.39;101482.09;5062525;28;45503;-68
2022/05/04 09:15:58;;;;;;;;;35.75;33.00;;;;;18.80;44.85;101485.63;5042951;28;45367;-73
2022/05/04 09:18:23;;;;;;;;;37.00;31.00;;;;;18.69;44.23;101449.56;5061202;28;45422;-70
2022/05/04 09:20:51;;;;;;;;;36.00;31.00;;;;;18.85;44.22;101472.25;5062614;28;45477;-70
2022/05/04 09:23:32;;;;;;;;;39.75;26.00;;;;;19.00;44.11;101486.97;5044206;28;45250;-70
2022/05/04 09:26:01;;;;;;;;;35.25;32.75;;;;;19.06;43.45;101485.09;5044735;28;45446;-71
2022/05/04 09:28:29;;;;;;;;;30.00;26.50;;;;;19.05;43.69;101480.69;5062120;28;45435;-70
2022/05/04 09:30:59;;;;;;;;;30.00;28.50;;;;;19.19;43.53;101484.81;5061469;28;45279;-72
2022/05/04 09:33:29;;;;;;;;;31.50;27.50;;;;;19.26;43.34;101486.44;5061519;28;45549;-70
2022/05/04 09:35:57;;;;;;;;;30.25;23.50;;;;;19.29;43.36;101475.72;5060180;28;45333;-71
2022/05/04 09:46:49;;;;;;;;;33.25;29.00;;;;;19.40;42.71;101439.16;5058062;28;45579;-74
2022/05/04 09:49:20;;;;;;;;;32.75;30.00;;;;;19.45;42.17;101442.59;5058107;28;45259;-74
2022/05/04 09:51:53;;;;;;;;;32.33;27.00;;;;;19.59;42.54;101460.88;5057763;28;46569;-71
2022/05/04 09:54:20;;;;;;;;;28.00;23.67;;;;;19.69;41.97;101469.50;5058080;28;45473;-72
2022/05/04 09:56:50;;;;;;;;;33.33;26.33;;;;;19.73;41.96;101457.91;5058074;28;45527;-71
2022/05/04 09:59:17;;;;;;;;;31.00;26.67;;;;;19.74;41.71;101453.47;5058237;28;45394;-71
2022/05/04 10:01:44;;;;;;;;;27.00;26.33;;;;;19.74;41.79;101433.06;5056975;28;45425;-73
2022/05/04 10:04:10;;;;;;;;;27.00;20.00;;;;;19.88;42.46;101461.97;5058122;28;45405;-73
2022/05/04 10:06:36;;;;;;;;;25.00;20.67;;;;;19.92;41.94;101463.63;5058010;28;45516;-72
2022/05/04 10:09:04;;;;;;;;;30.33;27.33;;;;;19.97;42.27;101458.22;5058229;28;45434;-76
2022/05/04 10:11:32;;;;;;;;;30.67;25.00;;;;;19.99;41.54;101453.72;5057358;28;45339;-73
2022/05/04 10:14:02;;;;;;;;;27.33;26.00;;;;;19.94;41.75;101448.53;5056861;28;45387;-74
2022/05/04 10:16:33;;;;;;;;;29.00;26.33;;;;;20.01;41.39;101452.78;5039103;28;45624;-73
2022/05/04 10:19:04;;;;;;;;;21.33;17.67;;;;;20.05;41.00;101446.47;5057665;28;45708;-73
2022/05/04 10:21:30;;;;;;;;;20.67;17.67;;;;;20.12;40.72;101452.47;5057285;28;45451;-73
2022/05/04 10:24:06;;;;;;;;;26.33;24.33;;;;;19.99;40.35;101414.72;5057145;28;45445;-74
2022/05/04 10:26:37;;;;;;;;;30.33;25.33;;;;;20.08;39.54;101451.69;5038973;28;45327;-71
2022/05/04 10:32:07;;;;;;;;;25.00;19.67;;;;;20.16;40.70;101450.63;5056966;28;45924;-74
2022/05/04 10:34:34;;;;;;;;;23.67;21.33;;;;;19.85;40.69;101380.50;5058050;28;45453;-74
2022/05/04 10:36:59;;;;;;;;;27.67;24.33;;;;;20.41;40.61;101467.69;5056900;28;45438;-75
2022/05/04 10:39:28;;;;;;;;;18.67;18.33;;;;;20.24;40.47;101414.03;5057226;28;45373;-71
2022/05/04 10:41:54;;;;;;;;;29.00;23.33;;;;;20.70;39.67;101463.38;5056831;28;46374;-75
2022/05/04 10:44:50;;;;;;;;;34.33;26.33;;;;;20.79;39.50;101467.56;5057011;28;45229;-70
2022/05/04 10:47:22;;;;;;;;;22.00;20.67;;;;;20.86;39.30;101471.78;5056764;28;45296;-73
2022/05/04 10:49:57;;;;;;;;;28.33;21.33;;;;;20.94;39.36;101457.31;5056799;28;45215;-73
2022/05/04 10:52:23;;;;;;;;;27.33;25.67;;;;;21.05;38.50;101459.66;5056781;28;46105;-72
2022/05/04 10:55:02;;;;;;;;;25.33;23.33;;;;;21.18;38.77;101454.81;5064198;28;45269;-73
2022/05/04 10:57:54;;;;;;;;;20.33;18.33;;;;;21.46;38.21;101473.53;5064492;28;45154;-73
2022/05/04 11:00:20;;;;;;;;;27.67;22.67;;;;;21.51;36.73;101471.59;5053871;28;45257;-76
2022/05/04 11:02:49;;;;;;;;;30.67;27.00;;;;;21.38;37.10;101440.91;5049877;28;45460;-70
2022/05/04 11:05:14;;;;;;;;;34.67;26.00;;;;;21.68;37.92;101471.03;5044505;28;45351;-74
2022/05/04 11:07:40;;;;;;;;;29.33;24.67;;;;;21.85;37.50;101457.16;5036841;28;45505;-76
2022/05/04 11:10:06;;;;;;;;;27.33;23.33;;;;;21.96;36.18;101456.78;5036726;28;45457;-74
2022/05/04 11:12:32;;;;;;;;;34.00;29.33;;;;;21.98;36.90;101454.94;5035903;28;46094;-74
2022/05/04 11:14:58;;;;;;;;;32.33;29.33;;;;;22.00;37.04;101453.09;5036799;28;45284;-76
2022/05/04 11:17:23;;;;;;;;;29.67;26.67;;;;;21.90;36.93;101438.31;5053671;28;45592;-74
2022/05/04 11:19:49;;;;;;;;;31.67;29.67;;;;;21.54;37.43;101378.19;5055203;28;45425;-71
2022/05/04 11:22:16;;;;;;;;;25.00;23.67;;;;;21.65;36.47;101415.16;5055634;28;45860;-74
2022/05/04 11:24:43;;;;;;;;;29.67;23.00;;;;;21.76;36.72;101444.16;5054207;28;45442;-72
2022/05/04 11:27:09;;;;;;;;;32.50;23.50;;;;;21.70;36.86;101444.34;5037276;28;45525;-71
2022/05/04 11:29:35;;;;;;;;;32.67;26.33;;;;;21.48;37.13;101431.72;5055959;28;45480;-73
2022/05/04 11:32:17;;;;;;;;;26.00;23.33;;;;;21.31;37.23;101402.06;5055890;28;45455;-72
2022/05/04 11:34:43;;;;;;;;;27.00;22.67;;;;;21.39;37.74;101435.53;5056349;28;46250;-74
2022/05/04 11:37:11;;;;;;;;;205.00;199.00;;;;;21.30;38.83;101438.47;5056814;28;45472;-79
2022/05/04 11:39:39;;;;;;;;;307.00;296.50;;;;;21.26;38.61;101436.84;5059283;28;45561;-73
2022/05/04 11:42:07;;;;;;;;;209.50;197.00;;;;;21.30;38.24;101442.91;5059866;28;45414;-73
2022/05/04 11:44:34;;;;;;;;;115.25;108.75;;;;;21.33;37.95;101437.47;5041978;28;45383;-73
2022/05/04 11:47:02;;;;;;;;;71.75;59.00;;;;;21.17;37.42;101413.13;5059766;28;45434;-75
2022/05/04 11:49:30;;;;;;;;;55.25;44.75;;;;;21.45;37.31;101438.91;5059441;28;45274;-74
2022/05/04 11:51:57;;;;;;;;;40.75;35.25;;;;;21.56;37.66;101434.13;5060031;28;45892;-71
2022/05/04 11:54:26;;;;;;;;;29.33;27.33;;;;;21.71;37.55;101425.63;5061360;28;45418;-71
2022/05/04 11:56:53;;;;;;;;;20.33;18.00;;;;;21.64;36.95;101385.88;5060463;28;45398;-75
2022/05/04 11:59:31;;;;;;;;;17.00;16.00;;;;;21.88;35.74;101410.81;5060455;28;45309;-70
2022/05/04 12:01:58;;;;;;;;;15.67;14.67;;;;;21.89;36.05;101426.78;5059437;28;45764;-70
2022/05/04 12:04:25;;;;;;;;;11.67;11.67;;;;;21.91;34.99;101432.09;5059154;28;45466;-70
2022/05/04 12:06:51;;;;;;;;;9.67;9.33;;;;;21.85;33.86;101417.16;5059062;28;45468;-71
2022/05/04 12:09:18;;;;;;;;;7.00;6.33;;;;;21.76;33.30;101405.00;5041502;28;45446;-70
2022/05/04 12:11:44;;;;;;;;;7.00;6.00;;;;;21.71;32.54;101427.41;5058962;28;45375;-68
2022/05/04 12:14:10;;;;;;;;;5.33;5.33;;;;;21.40;32.95;101393.75;5040928;28;45465;-69
2022/05/04 12:16:37;;;;;;;;;8.33;7.00;;;;;21.54;33.25;101403.97;5058572;28;45378;-71
2022/05/04 12:19:02;;;;;;;;;14.00;9.00;;;;;21.64;32.95;101423.19;5059388;28;45458;-73
2022/05/04 12:21:28;;;;;;;;;8.67;8.67;;;;;21.51;33.57;101425.41;5058446;28;45371;-70
2022/05/04 12:23:55;;;;;;;;;11.67;8.67;;;;;21.54;33.71;101423.50;5058941;28;45422;-72
2022/05/04 12:26:21;;;;;;;;;9.67;9.00;;;;;21.50;33.63;101429.00;5058487;28;45514;-71
2022/05/04 12:34:43;;;;;;;;;10.67;8.00;;;;;21.41;34.47;101347.56;5057791;28;45532;-72
2022/05/04 12:37:11;;;;;;;;;7.67;7.00;;;;;21.96;34.23;101416.78;5057373;28;45432;-71
2022/05/04 12:39:40;;;;;;;;;7.33;5.67;;;;;22.08;34.37;101412.81;5050885;28;45541;-71
2022/05/04 12:42:10;;;;;;;;;5.00;5.00;;;;;22.11;34.10;101394.91;5037517;28;46824;-72
2022/05/04 12:44:36;;;;;;;;;8.33;7.00;;;;;22.34;33.72;101396.78;5057885;28;45342;-71
2022/05/04 12:47:03;;;;;;;;;4.33;4.33;;;;;22.44;33.47;101399.97;5055404;28;45429;-71
2022/05/04 12:49:28;;;;;;;;;6.00;6.00;;;;;22.49;33.33;101406.00;5055827;28;45497;-72
2022/05/04 12:51:55;;;;;;;;;5.00;5.00;;;;;22.54;32.86;101401.41;5055409;28;45867;-70
2022/05/04 12:54:21;;;;;;;;;6.00;5.00;;;;;22.55;32.70;101391.59;5057374;28;45273;-70
2022/05/04 12:56:48;;;;;;;;;4.67;4.67;;;;;22.62;32.74;101396.63;5056993;28;45548;-72
2022/05/04 12:59:15;;;;;;;;;5.00;5.00;;;;;22.69;32.81;101397.28;5054894;28;45526;-71
2022/05/04 13:01:40;;;;;;;;;4.67;4.00;;;;;22.71;32.74;101391.84;5056825;28;45933;-73
2022/05/04 13:04:09;;;;;;;;;5.33;4.33;;;;;22.71;32.84;101391.84;5055257;28;45955;-72
2022/05/04 13:06:35;;;;;;;;;6.00;6.00;;;;;22.57;32.84;101377.25;5056037;28;45536;-73
2022/05/04 13:09:00;;;;;;;;;12.00;8.00;;;;;22.66;33.25;101402.72;5037061;28;45547;-71
2022/05/04 13:11:26;;;;;;;;;9.00;9.00;;;;;22.69;32.94;101393.72;5054634;28;46697;-71
2022/05/04 13:13:52;;;;;;;;;5.00;5.00;;;;;22.61;33.09;101386.88;5038989;28;45798;-69
2022/05/04 13:16:21;;;;;;;;;8.00;7.00;;;;;22.29;32.25;101333.84;5055892;28;45483;-75
2022/05/04 13:18:47;;;;;;;;;8.67;6.00;;;;;22.28;31.95;101374.78;5056603;28;45486;-74
2022/05/04 13:21:13;;;;;;;;;5.00;5.00;;;;;22.22;32.27;101390.09;5036878;28;47689;-72
2022/05/04 13:23:40;;;;;;;;;4.00;4.00;;;;;22.13;32.58;101371.72;5055665;28;45280;-72
2022/05/04 13:26:08;;;;;;;;;5.00;5.00;;;;;22.10;32.46;101370.97;5055579;28;45343;-71
2022/05/04 13:28:34;;;;;;;;;5.00;4.67;;;;;22.06;32.31;101382.66;5056747;28;45486;-71
2022/05/04 13:31:04;;;;;;;;;4.67;4.33;;;;;22.02;32.55;101380.09;5054867;28;46006;-71
2022/05/04 13:33:31;;;;;;;;;5.00;4.00;;;;;22.03;32.04;101378.31;5052993;28;45977;-72
2022/05/04 13:36:00;;;;;;;;;3.67;3.67;;;;;22.00;31.62;101375.75;5056930;28;45559;-71
2022/05/04 13:38:27;;;;;;;;;3.00;3.00;;;;;21.88;31.72;101358.38;5056773;28;45442;-71
2022/05/04 13:40:53;;;;;;;;;3.33;2.00;;;;;21.97;31.79;101370.50;5058785;28;45315;-71
2022/05/04 13:43:19;;;;;;;;;4.67;3.33;;;;;22.03;30.89;101368.50;5040849;28;45438;-69
2022/05/04 13:45:46;;;;;;;;;4.00;3.67;;;;;22.04;30.93;101353.34;5038788;28;45503;-69
2022/05/04 13:48:12;;;;;;;;;3.00;3.00;;;;;22.04;31.27;101337.34;5055648;28;45443;-70
2022/05/04 13:53:25;;;;;;;;;4.00;4.00;;;;;22.07;31.26;101280.34;5054143;28;45473;-71
2022/05/04 13:55:53;;;;;;;;;3.00;3.00;;;;;22.63;31.07;101360.09;5055716;28;45482;-69
2022/05/04 13:58:23;;;;;;;;;4.00;3.33;;;;;22.69;30.73;101362.56;5055506;28;45935;-70
2022/05/04 14:00:52;;;;;;;;;3.33;3.33;;;;;22.67;29.45;101351.06;5055298;28;46443;-71
2022/05/04 14:03:18;;;;;;;;;2.33;2.33;;;;;22.07;29.63;101265.25;5052249;28;46304;-73
2022/05/04 14:05:44;;;;;;;;;3.33;2.00;;;;;22.50;30.01;101334.84;5055379;28;45430;-70
2022/05/04 14:08:16;;;;;;;;;3.00;3.00;;;;;22.29;29.90;101313.34;5054355;28;45494;-70
2022/05/04 14:10:47;;;;;;;;;4.00;4.00;;;;;21.99;30.22;101276.19;5055141;28;46670;-71